Map

Track Data

SID SEASON NUMBER BASIN SUBBASIN NAME ISO_TIME NATURE LAT LON WMO_WIND WMO_PRES WMO_AGENCY TRACK_TYPE DIST2LAND LANDFALL IFLAG USA_AGENCY USA_ATCF_ID USA_LAT USA_LON USA_RECORD USA_STATUS USA_WIND USA_PRES USA_SSHS USA_R34_NE USA_R34_SE USA_R34_SW USA_R34_NW USA_R50_NE USA_R50_SE USA_R50_SW USA_R50_NW USA_R64_NE USA_R64_SE USA_R64_SW USA_R64_NW USA_POCI USA_ROCI USA_RMW USA_EYE TOKYO_LAT TOKYO_LON TOKYO_GRADE TOKYO_WIND TOKYO_PRES TOKYO_R50_DIR TOKYO_R50_LONG TOKYO_R50_SHORT TOKYO_R30_DIR TOKYO_R30_LONG TOKYO_R30_SHORT TOKYO_LAND CMA_LAT CMA_LON CMA_CAT CMA_WIND CMA_PRES HKO_LAT HKO_LON HKO_CAT HKO_WIND HKO_PRES NEWDELHI_LAT NEWDELHI_LON NEWDELHI_GRADE NEWDELHI_WIND NEWDELHI_PRES NEWDELHI_CI NEWDELHI_DP NEWDELHI_POCI REUNION_LAT REUNION_LON REUNION_TYPE REUNION_WIND REUNION_PRES REUNION_TNUM REUNION_CI REUNION_RMW REUNION_R34_NE REUNION_R34_SE REUNION_R34_SW REUNION_R34_NW REUNION_R50_NE REUNION_R50_SE REUNION_R50_SW REUNION_R50_NW REUNION_R64_NE REUNION_R64_SE REUNION_R64_SW REUNION_R64_NW BOM_LAT BOM_LON BOM_TYPE BOM_WIND BOM_PRES BOM_TNUM BOM_CI BOM_RMW BOM_R34_NE BOM_R34_SE BOM_R34_SW BOM_R34_NW BOM_R50_NE BOM_R50_SE BOM_R50_SW BOM_R50_NW BOM_R64_NE BOM_R64_SE BOM_R64_SW BOM_R64_NW BOM_ROCI BOM_POCI BOM_EYE BOM_POS_METHOD BOM_PRES_METHOD NADI_LAT NADI_LON NADI_CAT NADI_WIND NADI_PRES WELLINGTON_LAT WELLINGTON_LON WELLINGTON_WIND WELLINGTON_PRES DS824_LAT DS824_LON DS824_STAGE DS824_WIND DS824_PRES TD9636_LAT TD9636_LON TD9636_STAGE TD9636_WIND TD9636_PRES TD9635_LAT TD9635_LON TD9635_WIND TD9635_PRES TD9635_ROCI NEUMANN_LAT NEUMANN_LON NEUMANN_CLASS NEUMANN_WIND NEUMANN_PRES MLC_LAT MLC_LON MLC_CLASS MLC_WIND MLC_PRES USA_GUST BOM_GUST BOM_GUST_PER REUNION_GUST REUNION_GUST_PER USA_SEAHGT USA_SEARAD_NE USA_SEARAD_SE USA_SEARAD_SW USA_SEARAD_NW STORM_SPEED STORM_DIR
1927204N21088 1927 33 NI BB NOT_NAMED 1927-07-23 00:00:00 TS 21.0000 88.0000 main 70 54 _________O____ -1 21.0000 88.0000 TC 30 6 305
1927204N21088 1927 33 NI BB NOT_NAMED 1927-07-23 03:00:00 TS 21.1785 87.7302 main 54 22 _________PO___ -1 21.2678 87.5954 TC 30 21.0000 88.0000 1 7 303
1927204N21088 1927 33 NI BB NOT_NAMED 1927-07-23 06:00:00 TS 21.3870 87.3703 main 22 0 _________OP___ -1 21.5000 87.2000 TC 30 21.2175 87.6258 1 8 300
1927204N21088 1927 33 NI BB NOT_NAMED 1927-07-23 09:00:00 TS 21.5675 86.9974 main 0 0 _________PP___ -1 21.6723 86.8148 TC 30 21.4277 87.2408 1 8 295
1927204N21088 1927 33 NI BB NOT_NAMED 1927-07-23 12:00:00 TS 21.7120 86.6177 main 0 0 _________OP___ -1 21.8000 86.4000 TC 30 21.6241 86.8355 1 8 290
1927204N21088 1927 33 NI BB NOT_NAMED 1927-07-23 15:00:00 TS 21.8500 86.1537 main 0 0 _________PO___ -1 21.9000 85.9073 TC 30 21.8000 86.4000 1 9 287
1927204N21088 1927 33 NI BB NOT_NAMED 1927-07-23 18:00:00 TS 21.9754 85.6650 main 0 0 _________OP___ -1 22.0000 85.4000 TC 30 21.9508 85.9301 1 9 286
1927204N21088 1927 33 NI BB NOT_NAMED 1927-07-23 21:00:00 TS 22.1151 85.1849 main 0 0 _________PP___ -1 22.1499 84.9276 TC 30 22.0803 85.4422 1 9 287
1927204N21088 1927 33 NI BB NOT_NAMED 1927-07-24 00:00:00 TS 22.2473 84.7291 main 0 0 _________OP___ -1 22.3000 84.5000 TC 30 22.1946 84.9582 1 8 287
1927204N21088 1927 33 NI BB NOT_NAMED 1927-07-24 03:00:00 TS 22.3536 84.3212 main 0 0 _________PO___ -1 22.4073 84.1423 TC 30 22.3000 84.5000 1 7 286
1927204N21088 1927 33 NI BB NOT_NAMED 1927-07-24 06:00:00 TS 22.4532 83.9540 main 0 0 _________OP___ -1 22.5000 83.8000 TC 30 22.4064 84.1080 1 7 286
1927204N21088 1927 33 NI BB NOT_NAMED 1927-07-24 09:00:00 TS 22.5531 83.5784 main 0 0 _________PP___ -1 22.5999 83.4149 TC 30 22.5064 83.7419 1 7 286
1927204N21088 1927 33 NI BB NOT_NAMED 1927-07-24 12:00:00 TS 22.6516 83.1900 main 0 0 _________OP___ -1 22.7000 83.0000 TC 30 22.6032 83.3799 1 8 285
1927204N21088 1927 33 NI BB NOT_NAMED 1927-07-24 15:00:00 TS 22.7500 82.7787 main 0 0 _________PO___ -1 22.7999 82.5574 TC 30 22.7000 83.0000 1 8 284
1927204N21088 1927 33 NI BB NOT_NAMED 1927-07-24 18:00:00 TS 22.8419 82.3335 main 0 0 _________OP___ -1 22.9000 82.1000 TC 30 22.7837 82.5670 1 8 282
1927204N21088 1927 33 NI BB NOT_NAMED 1927-07-24 21:00:00 TS 22.9274 81.8820 main 0 0 _________PP___ -1 22.9849 81.6498 TC 30 22.8700 82.1143 1 9 283
1927204N21088 1927 33 NI BB NOT_NAMED 1927-07-25 00:00:00 TS 23.0356 81.4272 main 0 0 _________OP___ -1 23.1000 81.2000 TC 30 22.9712 81.6544 1 9 288
1927204N21088 1927 33 NI BB NOT_NAMED 1927-07-25 03:00:00 TS 23.1925 80.9713 main 0 0 _________PO___ -1 23.2849 80.7426 TC 30 23.1000 81.2000 1 9 293
1927204N21088 1927 33 NI BB NOT_NAMED 1927-07-25 06:00:00 TS 23.3893 80.5421 main 0 0 _________OP___ -1 23.5000 80.3000 TC 30 23.2786 80.7841 1 9 298
1927204N21088 1927 33 NI BB NOT_NAMED 1927-07-25 09:00:00 TS 23.5918 80.1399 main 0 0 _________PP___ -1 23.6997 79.9073 TC 30 23.4839 80.3725 1 9 299
1927204N21088 1927 33 NI BB NOT_NAMED 1927-07-25 12:00:00 TS 23.7986 79.7248 main 0 0 _________OP___ -1 23.9000 79.5000 TC 30 23.6973 79.9497 1 9 297
1927204N21088 1927 33 NI BB NOT_NAMED 1927-07-25 15:00:00 TS 24.0074 79.2613 main 0 0 _________PO___ -1 24.1149 79.0226 TC 30 23.9000 79.5000 1 10 294
1927204N21088 1927 33 NI BB NOT_NAMED 1927-07-25 18:00:00 TS 24.1983 78.7562 main 0 0 _________OP___ -1 24.3000 78.5000 TC 30 24.0966 79.0123 1 10 290
1927204N21088 1927 33 NI BB NOT_NAMED 1927-07-25 21:00:00 TS 24.3559 78.2267 main 0 0 _________PP___ -1 24.4374 77.9575 TC 30 24.2745 78.4959 1 10 285
1927204N21088 1927 33 NI AS NOT_NAMED 1927-07-26 00:00:00 TS 24.4576 77.6782 main 0 0 _________OP___ -1 24.5000 77.4000 TC 30 24.4152 77.9564 1 10 277
1927204N21088 1927 33 NI AS NOT_NAMED 1927-07-26 03:00:00 TS 24.4861 77.1286 main 0 0 _________PO___ -1 24.4722 76.8573 TC 30 24.5000 77.4000 1 10 269
1927204N21088 1927 33 NI AS NOT_NAMED 1927-07-26 06:00:00 TS 24.4475 76.5689 main 0 0 _________OP___ -1 24.4000 76.3000 TC 30 24.4949 76.8379 1 10 265
1927204N21088 1927 33 NI AS NOT_NAMED 1927-07-26 09:00:00 TS 24.3897 75.9852 main 0 0 _________PP___ -1 24.3424 75.7074 TC 30 24.4370 76.2630 1 11 264
1927204N21088 1927 33 NI AS NOT_NAMED 1927-07-26 12:00:00 TS 24.3302 75.3909 main 0 0 _________OP___ -1 24.3000 75.1000 TC 30 24.3605 75.6817 1 11 265
1927204N21088 1927 33 NI AS NOT_NAMED 1927-07-26 15:00:00 TS 24.2924 74.7962 main 0 0 _________PO___ -1 24.2849 74.4925 TC 30 24.3000 75.1000 1 11 268
1927204N21088 1927 33 NI AS NOT_NAMED 1927-07-26 18:00:00 TS 24.3002 74.1722 main 0 0 _________OP___ -1 24.3000 73.9000 TC 30 24.3003 74.4444 1 11 272
1927204N21088 1927 33 NI AS NOT_NAMED 1927-07-26 21:00:00 TS 24.3321 73.5380 main 0 0 _________PP___ -1 24.3427 73.2752 TC 30 24.3215 73.8008 1 11 274
1927204N21088 1927 33 NI AS NOT_NAMED 1927-07-27 00:00:00 TS 24.3783 73.0159 main 0 0 _________OP___ -1 24.4000 72.8000 TC 30 24.3567 73.2318 1 8 277
1927204N21088 1927 33 NI AS NOT_NAMED 1927-07-27 03:00:00 TS 24.4248 72.7125 main 0 0 _________PO___ -1 24.4497 72.6249 TC 30 24.4000 72.8000 1 4 282
1927204N21088 1927 33 NI AS NOT_NAMED 1927-07-27 06:00:00 TS 24.4646 72.5865 main 0 0 _________OP___ -1 24.5000 72.6000 TC 30 24.4293 72.5730 1 2 294
1927204N21088 1927 33 NI AS NOT_NAMED 1927-07-27 09:00:00 TS 24.5055 72.5137 main 0 0 _________PP___ -1 24.5425 72.5425 TC 30 24.4685 72.4849 1 1 318
1927204N21088 1927 33 NI AS NOT_NAMED 1927-07-27 12:00:00 TS 24.5618 72.4896 main 0 0 _________OP___ -1 24.6000 72.5000 TC 30 24.5235 72.4793 1 1 344
1927204N21088 1927 33 NI AS NOT_NAMED 1927-07-27 15:00:00 TS 24.6425 72.4713 main 0 0 _________PO___ -1 24.6850 72.4425 TC 30 24.6000 72.5000 1 2 344
1927204N21088 1927 33 NI AS NOT_NAMED 1927-07-27 18:00:00 TS 24.7517 72.4283 main 0 0 _________OP___ -1 24.8000 72.4000 TC 30 24.7034 72.4566 1 3 346
1927204N21088 1927 33 NI AS NOT_NAMED 1927-07-27 21:00:00 TS 24.8850 72.4100 main 0 0 _________PP___ -1 24.9425 72.3925 TC 30 24.8275 72.4275 1 3 359
1927204N21088 1927 33 NI AS NOT_NAMED 1927-07-28 00:00:00 TS 25.0314 72.4048 main 0 0 _________OP___ -1 25.1000 72.4000 TC 30 24.9628 72.4097 1 3 0
1927204N21088 1927 33 NI AS NOT_NAMED 1927-07-28 03:00:00 TS 25.1787 72.4000 main 0 0 _________PO___ -1 25.2575 72.4000 TC 30 25.1000 72.4000 1 3 356
1927204N21088 1927 33 NI AS NOT_NAMED 1927-07-28 06:00:00 TS 25.3105 72.3964 main 0 0 _________OP___ -1 25.4000 72.4000 TC 30 25.2209 72.3928 1 2 0
1927204N21088 1927 33 NI AS NOT_NAMED 1927-07-28 09:00:00 TS 25.4175 72.3962 main 0 0 _________PP___ -1 25.4925 72.4000 TC 30 25.3425 72.3925 1 2 3
1927204N21088 1927 33 NI AS NOT_NAMED 1927-07-28 12:00:00 TS 25.5339 72.3980 main 0 0 _________OP___ -1 25.6000 72.4000 TC 30 25.4678 72.3959 1 3 1
1927204N21088 1927 33 NI AS NOT_NAMED 1927-07-28 15:00:00 TS 25.7000 72.4000 main 0 0 _________PO___ -1 25.8000 72.4000 TC 30 25.6000 72.4000 1 3 4
1927204N21088 1927 33 NI AS NOT_NAMED 1927-07-28 18:00:00 TS 25.8521 72.4013 main 0 0 _________OP___ -1 26.0000 72.4000 TC 30 25.7413 72.4022 1 3 5
1927204N21088 1927 33 NI AS NOT_NAMED 1927-07-28 21:00:00 TS 25.9840 72.4015 main 0 0 _________PP___ -1 26.1250 72.4000 TC 30 25.8900 72.4025 1 2 358
1927204N21088 1927 33 NI AS NOT_NAMED 1927-07-29 00:00:00 TS 26.0958 72.4011 main 0 0 _________OP___ -1 26.2000 72.4000 TC 30 26.0438 72.4016 1 2 355
1927204N21088 1927 33 NI AS NOT_NAMED 1927-07-29 03:00:00 NR 26.2000 72.4000 main 0 __________O___ -1 TC 26.2000 72.4000 1 2 354

About IBTrACS Database

This database is a web-friendly format of International Best Track Archive for Climate Stewardship (IBTrACS), a global best track data archive curated by NOAA dating back to 1842.

Updated: 2021-11-26